createdAt,value
2023-01-02T00:01:06.876Z,22.03
2023-01-02T00:03:34.626Z,14.10
2023-01-02T00:06:06.721Z,26.40
2023-01-02T00:08:34.278Z,21.93
2023-01-02T00:11:01.630Z,29.57
2023-01-02T00:13:28.942Z,22.60
2023-01-02T00:15:56.347Z,19.00
2023-01-02T00:18:23.503Z,16.53
2023-01-02T00:20:50.751Z,19.13
2023-01-02T00:23:17.919Z,17.93
2023-01-02T00:25:45.107Z,15.97
2023-01-02T00:28:12.661Z,16.10
2023-01-02T00:30:39.880Z,14.47
2023-01-02T00:33:08.207Z,13.53
2023-01-02T00:35:38.537Z,12.73
2023-01-02T00:38:06.539Z,14.53
2023-01-02T00:40:34.322Z,28.33
2023-01-02T00:43:01.890Z,27.50
2023-01-02T00:45:29.128Z,20.13
2023-01-02T00:47:56.312Z,32.47
2023-01-02T00:50:23.729Z,27.30
2023-01-02T00:52:51.066Z,24.03
2023-01-02T00:55:18.326Z,21.57
2023-01-02T00:57:45.460Z,12.90
2023-01-02T01:00:17.052Z,20.93
2023-01-02T01:02:49.397Z,15.97
2023-01-02T01:05:16.689Z,26.30
2023-01-02T01:07:44.049Z,20.33
2023-01-02T01:10:11.356Z,16.00
2023-01-02T01:12:38.502Z,17.73
2023-01-02T01:15:10.497Z,16.23
2023-01-02T01:17:37.666Z,13.83
2023-01-02T01:20:05.573Z,18.13
2023-01-02T01:22:32.905Z,14.47
2023-01-02T01:25:00.329Z,10.40
2023-01-02T01:27:27.650Z,11.87
2023-01-02T01:29:55.158Z,13.60
2023-01-02T01:32:22.775Z,10.20
2023-01-02T01:34:50.121Z,9.63
2023-01-02T01:37:17.254Z,11.60
2023-01-02T01:39:44.653Z,16.50
2023-01-02T01:42:15.872Z,21.40
2023-01-02T01:44:55.115Z,12.87
2023-01-02T01:47:42.213Z,15.57
2023-01-02T01:50:29.709Z,12.80
2023-01-02T01:53:09.880Z,11.07
2023-01-02T01:55:45.325Z,11.93
2023-01-02T01:58:17.797Z,17.67
2023-01-02T02:00:45.385Z,10.20
2023-01-02T02:03:17.235Z,13.33
2023-01-02T02:05:45.737Z,12.07
2023-01-02T02:08:26.726Z,13.57
2023-01-02T02:10:55.418Z,12.53
2023-01-02T02:13:23.627Z,12.87
2023-01-02T02:16:18.912Z,10.90
2023-01-02T02:18:58.328Z,10.47
2023-01-02T02:21:47.427Z,11.27
2023-01-02T02:24:52.056Z,12.90
2023-01-02T02:27:46.385Z,14.07
2023-01-02T02:30:23.453Z,13.33
2023-01-02T02:33:31.583Z,11.00
2023-01-02T02:36:12.451Z,7.90
2023-01-02T02:38:48.386Z,8.67
2023-01-02T02:41:34.760Z,7.83
2023-01-02T02:44:24.940Z,10.13
2023-01-02T02:47:13.036Z,7.10
2023-01-02T02:49:51.112Z,8.90
2023-01-02T02:52:32.899Z,7.43
2023-01-02T02:55:07.898Z,8.30
2023-01-02T02:57:37.252Z,8.50
2023-01-02T03:00:08.874Z,8.03
2023-01-02T03:02:37.647Z,8.63
2023-01-02T03:05:08.352Z,8.17
2023-01-02T03:08:01.466Z,9.77
2023-01-02T03:10:49.795Z,9.87
2023-01-02T03:13:41.369Z,8.67
2023-01-02T03:16:22.875Z,10.63
2023-01-02T03:19:12.211Z,10.40
2023-01-02T03:21:41.872Z,10.77
2023-01-02T03:24:16.847Z,14.10
2023-01-02T03:26:48.739Z,8.07
2023-01-02T03:29:23.172Z,14.30
2023-01-02T03:31:55.525Z,16.10
2023-01-02T03:34:27.752Z,10.47
2023-01-02T03:37:04.133Z,21.37
2023-01-02T03:39:35.645Z,11.37
2023-01-02T03:42:35.245Z,15.67
2023-01-02T03:45:14.887Z,8.93
2023-01-02T03:48:03.056Z,9.90
2023-01-02T03:50:52.507Z,8.93
2023-01-02T03:53:20.728Z,9.70
2023-01-02T03:56:25.513Z,8.50
2023-01-02T03:59:12.922Z,9.30
2023-01-02T04:02:01.658Z,10.00
2023-01-02T04:04:50.380Z,11.17
2023-01-02T04:07:27.951Z,9.60
2023-01-02T04:09:57.009Z,8.37
2023-01-02T04:12:26.382Z,10.77
2023-01-02T04:14:59.936Z,10.37
2023-01-02T04:17:32.745Z,12.83
2023-01-02T04:20:13.654Z,9.90
2023-01-02T04:22:51.446Z,11.37
2023-01-02T04:25:19.637Z,9.97
2023-01-02T04:28:01.433Z,7.53
2023-01-02T04:30:32.561Z,8.90
2023-01-02T04:33:04.178Z,8.37
2023-01-02T04:35:31.873Z,9.77
2023-01-02T04:38:08.071Z,9.73
2023-01-02T04:40:38.399Z,10.90
2023-01-02T04:43:18.851Z,9.37
2023-01-02T04:45:48.856Z,6.00
2023-01-02T04:48:16.932Z,7.53
2023-01-02T04:50:45.541Z,8.10
2023-01-02T04:53:12.796Z,13.43
2023-01-02T04:55:40.533Z,11.20
2023-01-02T04:58:08.749Z,11.27
2023-01-02T05:00:36.170Z,9.07
2023-01-02T05:03:03.993Z,13.13
2023-01-02T05:05:32.042Z,12.23
2023-01-02T05:08:00.007Z,8.73
2023-01-02T05:10:27.490Z,10.70
2023-01-02T05:12:54.672Z,10.37
2023-01-02T05:15:23.811Z,10.47
2023-01-02T05:17:51.138Z,16.47
2023-01-02T05:20:18.497Z,10.53
2023-01-02T05:23:04.823Z,9.13
2023-01-02T05:25:34.788Z,9.27
2023-01-02T05:28:03.661Z,7.27
2023-01-02T05:30:31.204Z,6.63
2023-01-02T05:32:58.336Z,10.03
2023-01-02T05:35:31.881Z,10.67
2023-01-02T05:38:00.181Z,8.47
2023-01-02T05:40:27.415Z,6.93
2023-01-02T05:42:54.575Z,6.97
2023-01-02T05:45:21.792Z,9.80
2023-01-02T05:47:48.999Z,6.63
2023-01-02T05:50:16.281Z,8.37
2023-01-02T05:52:46.028Z,64.80
2023-01-02T05:55:13.932Z,7.43
2023-01-02T05:57:41.489Z,8.93
2023-01-02T06:00:10.051Z,10.07
2023-01-02T06:02:37.487Z,11.73
2023-01-02T06:05:05.519Z,10.57
2023-01-02T06:07:33.136Z,6.93
2023-01-02T06:10:00.357Z,7.10
2023-01-02T06:12:27.624Z,9.30
2023-01-02T06:14:54.801Z,8.83
2023-01-02T06:17:23.141Z,10.00
2023-01-02T06:19:53.975Z,9.67
2023-01-02T06:22:21.523Z,9.80
2023-01-02T06:24:49.377Z,9.77
2023-01-02T06:27:16.760Z,9.40
2023-01-02T06:29:43.915Z,11.70
2023-01-02T06:32:11.327Z,11.43
2023-01-02T06:34:38.596Z,10.00
2023-01-02T06:37:09.667Z,9.10
2023-01-02T06:39:37.556Z,8.17
2023-01-02T06:42:04.756Z,19.53
2023-01-02T06:44:32.165Z,11.10
2023-01-02T06:46:59.324Z,9.47
2023-01-02T06:49:26.503Z,16.57
2023-01-02T06:51:54.165Z,15.37
2023-01-02T06:54:21.397Z,19.63
2023-01-02T06:56:48.627Z,10.20
2023-01-02T06:59:15.875Z,20.43
2023-01-02T07:01:43.266Z,16.33
2023-01-02T07:04:19.672Z,9.33
2023-01-02T07:06:46.902Z,19.77
2023-01-02T07:09:14.307Z,23.40
2023-01-02T07:11:41.528Z,24.73
2023-01-02T07:14:08.940Z,31.10
2023-01-02T07:16:36.209Z,16.73
2023-01-02T07:19:04.221Z,11.27
2023-01-02T07:21:31.506Z,13.70
2023-01-02T07:23:58.722Z,11.20
2023-01-02T07:26:26.292Z,22.80
2023-01-02T07:28:53.529Z,18.50
2023-01-02T07:31:22.782Z,43.03
2023-01-02T07:33:50.380Z,30.70
2023-01-02T07:36:20.044Z,38.57
2023-01-02T07:38:54.424Z,14.57
2023-01-02T07:41:24.953Z,17.50
2023-01-02T07:43:55.311Z,25.47
2023-01-02T07:46:23.413Z,23.10
2023-01-02T07:48:51.075Z,24.63
2023-01-02T07:51:24.775Z,14.87
2023-01-02T07:53:54.431Z,12.53
2023-01-02T07:56:21.659Z,18.37
2023-01-02T07:58:48.883Z,26.63
2023-01-02T08:01:16.658Z,23.63
2023-01-02T08:03:44.379Z,10.17
2023-01-02T08:06:13.993Z,23.33
2023-01-02T08:08:42.195Z,19.70
2023-01-02T08:11:12.350Z,13.47
2023-01-02T08:13:39.958Z,14.40
2023-01-02T08:16:09.147Z,18.67
2023-01-02T08:18:37.214Z,12.87
2023-01-02T08:21:05.095Z,25.50
2023-01-02T08:23:33.119Z,12.27
2023-01-02T08:26:02.240Z,15.07
2023-01-02T08:28:30.075Z,28.50
2023-01-02T08:30:59.740Z,16.83
2023-01-02T08:33:27.616Z,17.77
2023-01-02T08:35:55.817Z,17.53
2023-01-02T08:38:23.365Z,15.77
2023-01-02T08:40:51.458Z,13.90
2023-01-02T08:43:18.685Z,10.67
2023-01-02T08:45:45.921Z,27.37
2023-01-02T08:48:20.954Z,8.17
2023-01-02T08:50:50.077Z,7.93
2023-01-02T08:53:19.145Z,10.53
2023-01-02T08:55:46.503Z,11.37
2023-01-02T08:58:14.384Z,10.83
2023-01-02T09:00:41.665Z,9.43
2023-01-02T09:03:09.136Z,11.17
2023-01-02T09:05:36.420Z,11.47
2023-01-02T09:08:03.695Z,16.40
2023-01-02T09:10:31.207Z,21.00
2023-01-02T09:12:59.397Z,22.93
2023-01-02T09:15:26.657Z,24.37
2023-01-02T09:17:54.033Z,9.73
2023-01-02T09:20:21.165Z,4.53
2023-01-02T09:22:48.592Z,4.90
2023-01-02T09:25:20.461Z,4.27
2023-01-02T09:27:49.428Z,4.57
2023-01-02T09:30:17.093Z,7.13
2023-01-02T09:32:44.780Z,4.27
2023-01-02T09:35:12.099Z,6.20
2023-01-02T09:37:39.362Z,4.97
2023-01-02T09:40:07.284Z,6.80
2023-01-02T09:42:35.086Z,12.13
2023-01-02T09:45:08.797Z,8.13
2023-01-02T09:47:39.651Z,7.60
2023-01-02T09:50:21.481Z,38.28
2023-01-02T09:52:55.854Z,29.80
2023-01-02T09:55:50.487Z,14.95
2023-01-02T09:58:39.031Z,11.00
2023-01-02T10:01:12.743Z,16.05
2023-01-02T10:03:54.660Z,11.93
2023-01-02T10:06:25.572Z,9.15
2023-01-02T10:09:23.277Z,11.55
2023-01-02T10:12:20.909Z,9.23
2023-01-02T10:14:59.229Z,11.45
2023-01-02T10:17:30.144Z,11.48
2023-01-02T10:19:57.276Z,10.27
2023-01-02T10:22:35.818Z,15.27
2023-01-02T10:25:16.311Z,3.30
2023-01-02T10:27:49.320Z,6.10
2023-01-02T10:30:21.347Z,10.15
2023-01-02T10:33:02.649Z,19.75
2023-01-02T10:35:42.400Z,6.90
2023-01-02T10:38:15.156Z,5.90
2023-01-02T10:40:46.360Z,6.30
2023-01-02T10:43:15.192Z,4.47
2023-01-02T10:45:43.183Z,3.80
2023-01-02T10:48:11.975Z,9.60
2023-01-02T10:50:44.424Z,15.70
2023-01-02T10:53:33.559Z,11.73
2023-01-02T10:56:07.507Z,6.93
2023-01-02T10:58:35.888Z,12.07
2023-01-02T11:01:19.835Z,15.77
2023-01-02T11:03:49.934Z,12.53
2023-01-02T11:06:35.194Z,10.43
2023-01-02T11:09:25.468Z,7.40
2023-01-02T11:12:13.926Z,8.00
2023-01-02T11:14:41.838Z,41.40
2023-01-02T11:17:21.254Z,8.57
2023-01-02T11:19:51.853Z,5.83
2023-01-02T11:22:32.321Z,4.97
2023-01-02T11:25:07.008Z,16.80
2023-01-02T11:27:42.722Z,8.20
2023-01-02T11:30:29.308Z,9.87
2023-01-02T11:33:17.353Z,10.30
2023-01-02T11:36:18.307Z,13.40
2023-01-02T11:38:50.947Z,11.00
2023-01-02T11:42:17.796Z,24.30
2023-01-02T11:44:54.181Z,12.20
2023-01-02T11:47:35.314Z,14.43
2023-01-02T11:50:03.562Z,13.67
2023-01-02T11:52:42.580Z,27.07
2023-01-02T11:55:41.253Z,20.43
2023-01-02T11:58:29.455Z,35.37
2023-01-02T12:01:17.049Z,9.10
2023-01-02T12:03:44.713Z,13.80
2023-01-02T12:06:23.978Z,9.57
2023-01-02T12:08:57.002Z,9.40
2023-01-02T12:11:27.138Z,9.03
2023-01-02T12:14:00.593Z,9.17
2023-01-02T12:16:38.083Z,15.90
2023-01-02T12:19:34.451Z,30.63
2023-01-02T12:22:20.301Z,10.80
2023-01-02T12:25:08.857Z,14.17
2023-01-02T12:28:06.273Z,20.53
2023-01-02T12:30:40.389Z,10.60
2023-01-02T12:34:08.792Z,9.73
2023-01-02T12:37:01.179Z,29.10
2023-01-02T12:39:55.840Z,24.60
2023-01-02T12:42:28.531Z,21.47
2023-01-02T12:44:58.325Z,20.03
2023-01-02T12:51:00.897Z,31.77
2023-01-02T12:59:43.853Z,7.83
2023-01-02T13:02:38.307Z,18.33
2023-01-02T13:05:11.840Z,18.57
2023-01-02T13:07:53.257Z,29.80
2023-01-02T13:10:25.373Z,27.45
2023-01-02T13:12:54.458Z,47.45
2023-01-02T13:15:23.291Z,14.73
2023-01-02T13:17:50.489Z,6.40
2023-01-02T13:20:28.118Z,6.75
2023-01-02T13:23:27.889Z,8.23
2023-01-02T13:26:03.241Z,10.97
2023-01-02T13:28:30.452Z,18.15
2023-01-02T13:31:43.999Z,12.15
2023-01-02T13:33:53.380Z,10.50
2023-01-02T13:36:37.304Z,7.63
2023-01-02T13:39:21.447Z,5.82
2023-01-02T13:42:19.620Z,15.05
2023-01-02T13:44:51.523Z,19.52
2023-01-02T13:47:33.837Z,20.52
2023-01-02T13:50:21.807Z,23.20
2023-01-02T13:53:26.758Z,19.40
2023-01-02T13:56:14.399Z,26.23
2023-01-02T13:58:52.194Z,9.33
2023-01-02T14:01:22.599Z,6.83
2023-01-02T14:04:08.077Z,8.97
2023-01-02T14:06:45.167Z,12.87
2023-01-02T14:09:18.297Z,14.37
2023-01-02T14:12:01.228Z,26.27
2023-01-02T14:14:47.313Z,11.43
2023-01-02T14:17:23.648Z,10.67
2023-01-02T14:20:30.421Z,14.77
2023-01-02T14:24:17.904Z,13.57
2023-01-02T14:26:38.854Z,22.63
2023-01-02T14:29:12.029Z,22.93
2023-01-02T14:31:39.767Z,23.00
2023-01-02T14:34:07.112Z,24.07
2023-01-02T14:36:46.277Z,35.87
2023-01-02T14:39:24.337Z,33.50
2023-01-02T14:42:10.224Z,31.63
2023-01-02T14:44:55.114Z,29.50
2023-01-02T14:47:47.094Z,33.40
2023-01-02T14:50:25.440Z,25.73
2023-01-02T14:53:02.873Z,30.37
2023-01-02T14:55:40.997Z,14.23
2023-01-02T14:58:18.363Z,31.13
2023-01-02T15:00:48.394Z,25.17
2023-01-02T15:03:37.615Z,28.23
2023-01-02T15:06:14.107Z,25.93
2023-01-02T15:08:49.328Z,38.33
2023-01-02T15:11:44.108Z,36.40
2023-01-02T15:14:23.374Z,67.07
2023-01-02T15:16:59.740Z,83.40
2023-01-02T15:19:31.175Z,65.87
2023-01-02T15:21:58.542Z,104.20
2023-01-02T15:24:28.474Z,143.97
2023-01-02T15:26:57.308Z,163.03
2023-01-02T15:29:28.948Z,165.70
2023-01-02T15:32:02.412Z,100.57
2023-01-02T15:34:32.100Z,115.63
2023-01-02T15:37:02.961Z,116.33
2023-01-02T15:39:38.093Z,161.50
2023-01-02T15:42:26.907Z,171.30
2023-01-02T15:45:13.914Z,211.50
2023-01-02T15:47:51.184Z,199.50
2023-01-02T15:50:30.153Z,138.93
2023-01-02T15:53:07.175Z,106.13
2023-01-02T15:55:40.022Z,79.03
2023-01-02T15:58:22.634Z,54.23
2023-01-02T16:01:09.291Z,61.10
2023-01-02T16:04:02.744Z,45.10
2023-01-02T16:06:39.778Z,61.70
2023-01-02T16:09:26.664Z,103.40
2023-01-02T16:11:57.615Z,93.37
2023-01-02T16:14:32.587Z,104.03
2023-01-02T16:17:04.855Z,85.17
2023-01-02T16:19:43.195Z,68.60
2023-01-02T16:22:20.969Z,71.77
2023-01-02T16:24:56.802Z,71.47
2023-01-02T16:27:28.416Z,95.73
2023-01-02T16:29:56.029Z,178.47
2023-01-02T16:32:32.069Z,80.00
2023-01-02T16:35:22.582Z,86.37
2023-01-02T16:38:01.445Z,49.27
2023-01-02T16:41:01.852Z,56.40
2023-01-02T16:43:21.696Z,54.40
2023-01-02T16:45:51.312Z,63.20
2023-01-02T16:48:25.409Z,95.13
2023-01-02T16:50:55.560Z,109.90
2023-01-02T16:53:29.410Z,101.63
2023-01-02T16:55:57.442Z,88.77
2023-01-02T16:58:25.709Z,57.03
2023-01-02T17:00:54.564Z,95.00
2023-01-02T17:03:25.187Z,118.43
2023-01-02T17:06:07.717Z,157.60
2023-01-02T17:08:34.992Z,120.47
2023-01-02T17:11:02.560Z,172.77
2023-01-02T17:13:30.456Z,235.17
2023-01-02T17:15:58.109Z,94.53
2023-01-02T17:18:25.642Z,84.07
2023-01-02T17:20:53.459Z,127.57
2023-01-02T17:23:21.278Z,96.77
2023-01-02T17:25:48.669Z,99.10
2023-01-02T17:28:16.475Z,100.57
2023-01-02T17:30:45.137Z,74.33
2023-01-02T17:33:12.389Z,68.83
2023-01-02T17:35:39.674Z,88.07
2023-01-02T17:38:07.452Z,98.03
2023-01-02T17:40:34.957Z,91.30
2023-01-02T17:43:02.333Z,137.87
2023-01-02T17:45:29.814Z,221.10
2023-01-02T17:48:02.718Z,224.40
2023-01-02T17:50:35.061Z,182.53
2023-01-02T17:53:04.451Z,165.70
2023-01-02T17:55:31.693Z,166.23
2023-01-02T17:58:01.390Z,152.47
2023-01-02T18:00:28.808Z,103.07
2023-01-02T18:02:56.678Z,212.57
2023-01-02T18:05:23.853Z,170.43
2023-01-02T18:07:51.078Z,154.13
2023-01-02T18:10:20.912Z,147.33
2023-01-02T18:12:49.991Z,123.87
2023-01-02T18:15:20.075Z,105.27
2023-01-02T18:17:48.003Z,113.73
2023-01-02T18:20:21.579Z,138.57
2023-01-02T18:22:50.744Z,146.70
2023-01-02T18:25:27.608Z,160.80
2023-01-02T18:28:11.176Z,136.13
2023-01-02T18:30:38.379Z,81.23
2023-01-02T18:33:17.913Z,93.57
2023-01-02T18:35:58.759Z,62.27
2023-01-02T18:38:29.525Z,79.27
2023-01-02T18:40:57.064Z,99.93
2023-01-02T18:43:38.384Z,96.00
2023-01-02T18:46:16.393Z,84.70
2023-01-02T18:48:44.107Z,102.73
2023-01-02T18:51:23.131Z,72.00
2023-01-02T18:53:54.881Z,67.13
2023-01-02T18:56:30.401Z,82.27
2023-01-02T18:59:06.458Z,75.87
2023-01-02T19:01:40.017Z,74.03
2023-01-02T19:04:24.354Z,111.57
2023-01-02T19:06:57.524Z,76.33
2023-01-02T19:09:36.387Z,103.27
2023-01-02T19:12:34.060Z,106.30
2023-01-02T19:15:22.067Z,92.53
2023-01-02T19:17:49.346Z,93.70
2023-01-02T19:20:17.188Z,87.23
2023-01-02T19:22:44.580Z,142.50
2023-01-02T19:25:19.229Z,132.13
2023-01-02T19:27:46.435Z,270.90
2023-01-02T19:30:25.768Z,222.77
2023-01-02T19:32:53.408Z,152.43
2023-01-02T19:35:49.360Z,148.53
2023-01-02T19:38:30.337Z,102.77
2023-01-02T19:41:01.893Z,86.63
2023-01-02T19:43:29.111Z,95.27
2023-01-02T19:45:56.411Z,91.23
2023-01-02T19:48:23.769Z,93.47
2023-01-02T19:50:51.072Z,123.23
2023-01-02T19:53:18.387Z,241.97
2023-01-02T19:55:45.703Z,189.87
2023-01-02T19:58:13.252Z,104.17
2023-01-02T20:00:40.603Z,132.57
2023-01-02T20:03:07.926Z,133.67
2023-01-02T20:05:36.935Z,131.03
2023-01-02T20:08:04.409Z,145.00
2023-01-02T20:10:31.548Z,241.90
2023-01-02T20:12:58.845Z,85.40
2023-01-02T20:15:28.123Z,128.47
2023-01-02T20:17:56.369Z,145.80
2023-01-02T20:20:25.629Z,75.70
2023-01-02T20:22:55.163Z,123.23
2023-01-02T20:25:25.622Z,112.50
2023-01-02T20:27:56.711Z,112.40
2023-01-02T20:30:24.980Z,138.23
2023-01-02T20:32:53.650Z,73.73
2023-01-02T20:35:20.861Z,85.13
2023-01-02T20:37:48.766Z,114.63
2023-01-02T20:40:16.247Z,211.20
2023-01-02T20:42:43.971Z,136.10
2023-01-02T20:45:11.820Z,131.93
2023-01-02T20:47:39.207Z,106.93
2023-01-02T20:50:06.728Z,81.77
2023-01-02T20:52:33.898Z,87.67
2023-01-02T20:55:01.242Z,63.73
2023-01-02T20:57:29.688Z,38.07
2023-01-02T20:59:57.237Z,29.77
2023-01-02T21:02:24.812Z,26.83
2023-01-02T21:04:52.174Z,27.30
2023-01-02T21:07:19.927Z,27.27
2023-01-02T21:09:47.118Z,13.03
2023-01-02T21:12:33.107Z,33.07
2023-01-02T21:15:00.396Z,29.57
2023-01-02T21:17:27.548Z,18.97
2023-01-02T21:19:54.877Z,17.87
2023-01-02T21:22:22.069Z,11.23
2023-01-02T21:24:49.714Z,10.07
2023-01-02T21:27:16.980Z,19.10
2023-01-02T21:29:45.824Z,16.80
2023-01-02T21:32:13.068Z,14.43
2023-01-02T21:34:40.248Z,12.53
2023-01-02T21:37:07.353Z,16.30
2023-01-02T21:39:34.540Z,15.80
2023-01-02T21:42:16.538Z,11.53
2023-01-02T21:44:47.383Z,10.13
2023-01-02T21:47:15.734Z,14.23
2023-01-02T21:49:43.588Z,11.20
2023-01-02T21:52:11.234Z,11.37
2023-01-02T21:54:38.550Z,11.47
2023-01-02T21:57:05.713Z,9.33
2023-01-02T21:59:33.665Z,10.27
2023-01-02T22:02:03.995Z,10.97
2023-01-02T22:04:31.640Z,10.43
2023-01-02T22:09:46.362Z,9.80
2023-01-02T22:12:13.858Z,8.10
2023-01-02T22:14:41.154Z,8.77
2023-01-02T22:17:10.515Z,11.90
2023-01-02T22:19:38.361Z,9.03
2023-01-02T22:22:05.823Z,9.27
2023-01-02T22:24:36.574Z,7.40
2023-01-02T22:27:08.976Z,8.40
2023-01-02T22:30:09.686Z,7.73
2023-01-02T22:32:24.094Z,8.00
2023-01-02T22:34:51.546Z,8.77
2023-01-02T22:37:22.650Z,9.43
2023-01-02T22:39:50.361Z,7.53
2023-01-02T22:45:34.510Z,6.97
2023-01-02T22:48:06.330Z,9.27
2023-01-02T22:50:42.950Z,8.30
2023-01-02T22:53:35.102Z,8.47
2023-01-02T22:56:10.757Z,7.93
2023-01-02T22:58:37.892Z,9.47
2023-01-02T23:01:24.722Z,8.57
2023-01-02T23:03:51.993Z,5.93
2023-01-02T23:06:22.283Z,8.53
2023-01-02T23:08:50.463Z,19.53
2023-01-02T23:11:18.632Z,7.93
2023-01-02T23:13:51.499Z,6.80
2023-01-02T23:16:40.501Z,5.83
2023-01-02T23:19:16.597Z,5.80
2023-01-02T23:21:51.521Z,8.47
2023-01-02T23:24:22.474Z,4.90
2023-01-02T23:26:54.980Z,8.07
2023-01-02T23:29:24.084Z,6.63
2023-01-02T23:31:52.352Z,6.63
2023-01-02T23:34:28.259Z,9.20
2023-01-02T23:36:56.996Z,7.00
2023-01-02T23:39:26.950Z,7.20
2023-01-02T23:41:54.591Z,7.73
2023-01-02T23:44:23.285Z,6.20
2023-01-02T23:46:51.149Z,7.47
2023-01-02T23:49:18.459Z,7.20
2023-01-02T23:51:46.376Z,7.00
2023-01-02T23:54:15.937Z,8.70
2023-01-02T23:56:45.898Z,7.23
2023-01-02T23:59:16.546Z,6.73
